Time;durP1;ratioP1;P1;durP2;ratioP2;P2;SDS_P1;SDS_P2;PMS_P1;PMS_P2;Temp;Humidity;BMP_temperature;BMP_pressure;BME280_temperature;BME280_humidity;BME280_pressure;Samples;Min_cycle;Max_cycle;Signal;HPM_P1;HPM_P2
2022/09/06 00:00:33;;;;;;;0.00;0.00;;;;;;;18.27;75.95;100154.34;7351329;19;20022;-61
2022/09/06 00:02:59;;;;;;;0.00;0.00;;;;;;;18.38;74.97;100178.31;7352097;19;20017;-61
2022/09/06 00:05:26;;;;;;;0.00;0.00;;;;;;;18.42;73.23;100182.47;7351620;19;20928;-61
2022/09/06 00:07:52;;;;;;;0.10;0.10;;;;;;;18.45;74.53;100177.91;7352746;19;20370;-61
2022/09/06 00:10:18;;;;;;;0.10;0.10;;;;;;;18.45;75.30;100183.19;7351853;19;20010;-61
2022/09/06 00:12:43;;;;;;;0.00;0.00;;;;;;;18.46;74.74;100182.28;7350849;19;20016;-61
2022/09/06 00:15:09;;;;;;;0.00;0.00;;;;;;;18.48;74.77;100183.00;7349453;19;20281;-61
2022/09/06 00:17:35;;;;;;;0.00;0.00;;;;;;;18.46;75.80;100174.34;7349321;19;20048;-61
2022/09/06 00:20:02;;;;;;;0.00;0.00;;;;;;;18.47;75.12;100176.03;7351092;19;20117;-61
2022/09/06 00:22:28;;;;;;;0.00;0.00;;;;;;;18.40;73.60;100171.16;7350002;19;20055;-61
2022/09/06 00:24:53;;;;;;;0.03;0.03;;;;;;;18.50;74.17;100176.69;7348211;19;20048;-61
2022/09/06 00:27:18;;;;;;;0.00;0.00;;;;;;;18.48;75.14;100175.94;7350776;19;20010;-61
2022/09/06 00:29:44;;;;;;;0.00;0.00;;;;;;;18.50;74.45;100181.09;7349143;19;20013;-61
2022/09/06 00:32:09;;;;;;;0.00;0.00;;;;;;;18.52;74.49;100182.72;7351524;19;20030;-61
2022/09/06 00:34:34;;;;;;;0.00;0.00;;;;;;;18.53;75.57;100194.16;7349248;19;20344;-61
2022/09/06 00:37:00;;;;;;;0.00;0.00;;;;;;;18.53;74.41;100187.06;7349438;19;20010;-61
2022/09/06 00:39:25;;;;;;;0.00;0.00;;;;;;;18.54;74.95;100172.03;7349421;19;20558;-61
2022/09/06 00:41:51;;;;;;;0.00;0.00;;;;;;;18.50;74.93;100175.81;7350419;19;20014;-61
2022/09/06 00:44:16;;;;;;;0.00;0.00;;;;;;;18.59;74.82;100180.53;7350087;19;20905;-61
2022/09/06 00:46:45;;;;;;;0.00;0.00;;;;;;;18.64;73.75;100184.56;7348551;19;20025;-61
2022/09/06 00:49:33;;;;;;;0.00;0.00;;;;;;;18.63;73.37;100179.38;7350840;19;20364;-61
2022/09/06 00:52:06;;;;;;;0.00;0.00;;;;;;;18.63;74.04;100172.28;7350024;19;20010;-61
2022/09/06 00:54:32;;;;;;;0.00;0.00;;;;;;;18.61;75.03;100179.50;7349441;19;20015;-60
2022/09/06 00:56:58;;;;;;;0.00;0.00;;;;;;;18.58;75.69;100171.75;7350297;19;20022;-61
2022/09/06 00:59:30;;;;;;;0.00;0.00;;;;;;;18.58;75.19;100178.84;7349491;19;20744;-61
2022/09/06 01:01:56;;;;;;;0.03;0.03;;;;;;;18.47;76.72;100165.47;7349424;19;20007;-61
2022/09/06 01:04:23;;;;;;;0.00;0.00;;;;;;;18.43;76.10;100167.44;7348987;19;20014;-61
2022/09/06 01:07:03;;;;;;;0.00;0.00;;;;;;;18.50;74.87;100170.53;7348577;19;20010;-61
2022/09/06 01:10:07;;;;;;;0.00;0.00;;;;;;;18.46;74.43;100187.56;7348872;19;20039;-61
2022/09/06 01:12:51;;;;;;;0.00;0.00;;;;;;;18.37;75.84;100181.91;7247850;19;2004444;-61
2022/09/06 01:15:45;;;;;;;0.00;0.00;;;;;;;18.36;74.72;100185.50;7348709;19;20061;-61
2022/09/06 01:18:16;;;;;;;0.03;0.03;;;;;;;18.30;75.27;100182.41;7245597;19;2004497;-62
2022/09/06 01:21:01;;;;;;;0.00;0.00;;;;;;;18.21;75.48;100175.88;7348675;19;20010;-62
2022/09/06 01:23:32;;;;;;;0.00;0.00;;;;;;;18.21;76.06;100182.97;7348619;19;20019;-62
2022/09/06 01:26:33;;;;;;;0.00;0.00;;;;;;;18.20;74.44;100181.25;7349369;19;20014;-62
2022/09/06 01:28:59;;;;;;;0.00;0.00;;;;;;;18.13;75.75;100180.78;7248034;19;2004681;-62
2022/09/06 01:31:50;;;;;;;0.10;0.10;;;;;;;18.12;75.72;100176.47;7357625;19;20718;-61
2022/09/06 01:34:43;;;;;;;0.00;0.00;;;;;;;18.09;75.51;100182.75;7255692;19;2004975;-62
2022/09/06 01:37:13;;;;;;;0.00;0.00;;;;;;;18.03;76.54;100182.31;7255564;19;2004502;-62
2022/09/06 01:39:39;;;;;;;0.00;0.00;;;;;;;17.91;76.19;100177.78;7357026;19;20014;-62
2022/09/06 01:42:24;;;;;;;0.00;0.00;;;;;;;18.02;75.50;100185.91;7355320;19;20507;-62
2022/09/06 01:44:56;;;;;;;0.00;0.00;;;;;;;17.98;76.36;100184.38;7358451;19;20017;-62
2022/09/06 01:47:39;;;;;;;0.00;0.00;;;;;;;18.00;76.26;100182.50;7359740;19;20070;-62
2022/09/06 01:50:07;;;;;;;0.10;0.10;;;;;;;17.98;76.38;100165.88;7358484;19;20007;-62
2022/09/06 01:52:50;;;;;;;0.00;0.00;;;;;;;17.99;75.70;100176.34;7358924;19;20018;-62
2022/09/06 01:55:34;;;;;;;0.00;0.00;;;;;;;17.97;75.71;100183.53;7357288;19;20015;-62
2022/09/06 01:58:11;;;;;;;0.00;0.00;;;;;;;17.96;75.98;100171.28;7352248;19;20744;-62
2022/09/06 02:00:44;;;;;;;;;;;;;;;17.96;75.03;100173.91;7366647;19;20101;-62
2022/09/06 02:03:23;;;;;;;0.00;0.00;;;;;;;17.93;76.74;100178.53;7364666;19;19922;-62
2022/09/06 02:06:11;;;;;;;0.00;0.00;;;;;;;17.93;75.72;100181.16;7365122;19;20036;-62
2022/09/06 02:08:52;;;;;;;0.00;0.00;;;;;;;17.90;76.77;100176.94;7366423;19;20014;-62
2022/09/06 02:11:17;;;;;;;0.00;0.00;;;;;;;17.87;76.72;100167.41;7365965;19;20031;-62
2022/09/06 02:13:54;;;;;;;0.00;0.00;;;;;;;17.92;76.46;100175.03;7367210;19;20089;-62
2022/09/06 02:16:23;;;;;;;0.00;0.00;;;;;;;17.89;76.95;100160.25;7365533;19;20014;-62
2022/09/06 02:18:55;;;;;;;0.00;0.00;;;;;;;17.92;77.25;100174.19;7365287;19;20781;-62
2022/09/06 02:21:28;;;;;;;0.00;0.00;;;;;;;17.93;77.01;100165.31;7364611;19;20043;-62
2022/09/06 02:23:58;;;;;;;0.00;0.00;;;;;;;17.92;77.36;100163.63;7366685;19;20017;-62
2022/09/06 02:26:28;;;;;;;0.00;0.00;;;;;;;17.80;77.25;100142.31;7365718;19;20010;-62
2022/09/06 02:28:54;;;;;;;0.00;0.00;;;;;;;17.94;77.10;100161.72;7367489;19;20083;-62
2022/09/06 02:31:30;;;;;;;0.00;0.00;;;;;;;18.00;77.32;100164.88;7365487;19;20033;-62
2022/09/06 02:33:56;;;;;;;0.00;0.00;;;;;;;17.99;76.76;100164.94;7364804;19;20015;-62
2022/09/06 02:36:22;;;;;;;0.00;0.00;;;;;;;17.93;77.07;100160.03;7364022;19;20014;-62
2022/09/06 02:38:48;;;;;;;0.10;0.10;;;;;;;18.03;77.62;100161.16;7365610;19;20019;-62
2022/09/06 02:41:18;;;;;;;0.10;0.10;;;;;;;18.06;76.87;100150.41;7366835;19;20018;-62
2022/09/06 02:43:43;;;;;;;0.00;0.00;;;;;;;18.08;77.62;100153.81;7365632;19;20768;-62
2022/09/06 02:46:09;;;;;;;0.00;0.00;;;;;;;18.10;77.14;100159.88;7364323;19;20010;-62
2022/09/06 02:48:34;;;;;;;0.00;0.00;;;;;;;18.05;77.37;100154.00;7364076;19;20036;-63
2022/09/06 02:51:08;;;;;;;0.00;0.00;;;;;;;18.16;76.92;100151.53;7363885;19;20118;-63
2022/09/06 02:53:34;;;;;;;0.03;0.03;;;;;;;18.13;76.30;100149.06;7364002;19;20006;-62
2022/09/06 02:55:59;;;;;;;0.00;0.00;;;;;;;18.14;76.64;100153.41;7366258;19;20450;-62
2022/09/06 02:58:25;;;;;;;0.00;0.00;;;;;;;18.14;76.20;100148.97;7363868;19;20048;-62
2022/09/06 03:00:51;;;;;;;0.00;0.00;;;;;;;18.16;75.90;100156.81;7366941;19;20100;-63
2022/09/06 03:03:17;;;;;;;0.03;0.03;;;;;;;18.15;76.07;100155.13;7362871;19;20041;-62
2022/09/06 03:05:48;;;;;;;0.00;0.00;;;;;;;18.17;75.95;100139.16;7354516;19;20021;-62
2022/09/06 03:08:14;;;;;;;0.00;0.00;;;;;;;18.12;75.83;100142.94;7362691;19;20018;-62
2022/09/06 03:10:40;;;;;;;0.00;0.00;;;;;;;18.12;76.38;100136.81;7362881;19;22258;-62
2022/09/06 03:13:05;;;;;;;0.00;0.00;;;;;;;18.12;76.65;100140.31;7363960;19;20366;-62
2022/09/06 03:15:30;;;;;;;0.00;0.00;;;;;;;18.12;77.31;100131.53;7363825;19;20035;-62
2022/09/06 03:17:58;;;;;;;0.00;0.00;;;;;;;18.14;76.75;100140.19;7361121;19;20384;-62
2022/09/06 03:20:23;;;;;;;;;;;;;;;18.19;75.08;100139.91;7359855;19;20022;-63
2022/09/06 03:22:49;;;;;;;0.00;0.00;;;;;;;18.14;76.26;100132.28;7363736;19;19927;-62
2022/09/06 03:25:14;;;;;;;0.00;0.00;;;;;;;18.13;75.92;100130.59;7362312;19;20813;-62
2022/09/06 03:27:39;;;;;;;0.00;0.00;;;;;;;18.10;75.82;100125.50;7364020;19;20010;-62
2022/09/06 03:30:05;;;;;;;0.08;0.08;;;;;;;18.10;75.66;100142.22;7362050;19;20018;-62
2022/09/06 03:32:31;;;;;;;0.00;0.00;;;;;;;18.10;75.67;100130.78;7364473;19;20009;-62
2022/09/06 03:34:56;;;;;;;0.00;0.00;;;;;;;18.07;76.36;100133.63;7361693;19;20457;-62
2022/09/06 03:37:22;;;;;;;0.00;0.00;;;;;;;18.06;76.52;100127.50;7363146;19;20014;-62
2022/09/06 03:39:47;;;;;;;0.03;0.03;;;;;;;18.03;76.76;100127.66;7362912;19;20074;-62
2022/09/06 03:42:13;;;;;;;0.00;0.00;;;;;;;18.05;76.02;100128.44;7361358;19;20029;-62
2022/09/06 03:44:38;;;;;;;0.00;0.00;;;;;;;18.07;76.22;100130.97;7363813;19;20006;-62
2022/09/06 03:47:04;;;;;;;0.00;0.00;;;;;;;18.06;75.81;100124.84;7360896;19;20534;-62
2022/09/06 03:49:29;;;;;;;0.00;0.00;;;;;;;18.05;76.33;100122.31;7363532;19;20033;-62
2022/09/06 03:51:54;;;;;;;0.00;0.00;;;;;;;18.05;75.88;100117.03;7360485;19;20006;-62
2022/09/06 03:54:20;;;;;;;0.00;0.00;;;;;;;18.06;75.30;100124.00;7364142;19;20010;-62
2022/09/06 03:56:45;;;;;;;0.00;0.00;;;;;;;17.98;75.67;100121.81;7360945;19;20007;-62
2022/09/06 03:59:11;;;;;;;0.00;0.00;;;;;;;18.02;76.71;100111.91;7362701;19;20018;-62
2022/09/06 04:01:36;;;;;;;0.00;0.00;;;;;;;18.04;75.56;100120.59;7362423;19;20469;-62
2022/09/06 04:04:02;;;;;;;0.00;0.00;;;;;;;18.02;76.11;100117.19;7361898;19;20069;-62
2022/09/06 04:06:27;;;;;;;0.00;0.00;;;;;;;18.01;75.68;100112.88;7365293;19;25455;-62
2022/09/06 04:08:53;;;;;;;0.00;0.00;;;;;;;18.02;76.31;100118.06;7360449;19;20007;-61
2022/09/06 04:11:18;;;;;;;0.00;0.00;;;;;;;18.01;76.32;100110.22;7363920;19;20017;-62
2022/09/06 04:13:44;;;;;;;0.00;0.00;;;;;;;18.01;76.06;100110.22;7360065;19;20015;-62
2022/09/06 04:16:09;;;;;;;0.00;0.00;;;;;;;17.95;75.61;100092.13;7364252;19;20011;-62
2022/09/06 04:18:35;;;;;;;0.00;0.00;;;;;;;18.00;75.85;100097.97;7358179;19;20022;-62
2022/09/06 04:21:01;;;;;;;0.00;0.00;;;;;;;18.05;75.49;100106.47;7364020;19;20440;-62
2022/09/06 04:23:28;;;;;;;0.00;0.00;;;;;;;18.00;76.37;100093.53;7361380;19;20013;-62
2022/09/06 04:25:55;;;;;;;0.00;0.00;;;;;;;17.92;76.44;100092.31;7360646;19;20554;-62
2022/09/06 04:28:21;;;;;;;;;;;;;;;18.10;75.03;100117.59;7361825;19;20010;-62
2022/09/06 04:31:01;;;;;;;0.00;0.00;;;;;;;18.03;75.95;100087.19;7361196;19;19922;-62
2022/09/06 04:33:27;;;;;;;0.00;0.00;;;;;;;18.04;76.52;100105.56;7362295;19;20464;-62
2022/09/06 04:35:57;;;;;;;0.03;0.03;;;;;;;18.05;75.91;100109.09;7361227;19;20766;-62
2022/09/06 04:38:23;;;;;;;0.00;0.00;;;;;;;18.04;75.72;100110.88;7364173;19;20010;-62
2022/09/06 04:40:48;;;;;;;0.00;0.00;;;;;;;18.04;75.65;100099.44;7361095;19;20015;-62
2022/09/06 04:43:14;;;;;;;0.00;0.00;;;;;;;18.02;75.09;100101.34;7361910;19;20348;-63
2022/09/06 04:45:40;;;;;;;0.00;0.00;;;;;;;18.05;75.45;100101.16;7359483;19;20010;-62
2022/09/06 04:48:06;;;;;;;0.00;0.00;;;;;;;18.02;75.71;100104.00;7363470;19;20068;-62
2022/09/06 04:50:32;;;;;;;0.00;0.00;;;;;;;17.98;76.25;100099.84;7361374;19;20684;-62
2022/09/06 04:52:57;;;;;;;0.00;0.00;;;;;;;17.96;75.13;100097.31;7359985;19;21864;-62
2022/09/06 04:55:22;;;;;;;0.00;0.00;;;;;;;17.95;75.81;100094.78;7359880;19;20040;-62
2022/09/06 04:57:48;;;;;;;0.05;0.05;;;;;;;17.95;75.12;100094.78;7362014;19;20767;-62
2022/09/06 05:00:13;;;;;;;0.00;0.00;;;;;;;17.92;74.95;100089.66;7360473;19;20010;-62
2022/09/06 05:02:39;;;;;;;0.00;0.00;;;;;;;17.89;74.63;100082.75;7358982;19;20023;-62
2022/09/06 05:05:05;;;;;;;0.00;0.00;;;;;;;17.88;74.59;100081.94;7359520;19;20013;-62
2022/09/06 05:07:30;;;;;;;0.00;0.00;;;;;;;17.83;74.46;100083.16;7360003;19;20039;-62
2022/09/06 05:09:56;;;;;;;0.00;0.00;;;;;;;17.80;74.69;100086.84;7359454;19;20391;-62
2022/09/06 05:12:21;;;;;;;0.00;0.00;;;;;;;17.74;75.17;100097.81;7361903;19;20581;-62
2022/09/06 05:14:47;;;;;;;0.00;0.00;;;;;;;17.72;74.99;100091.72;7361462;19;20014;-62
2022/09/06 05:17:13;;;;;;;0.00;0.00;;;;;;;17.69;74.59;100089.28;7360362;19;20006;-62
2022/09/06 05:19:39;;;;;;;0.00;0.00;;;;;;;17.68;74.54;100092.00;7360083;19;20038;-62
2022/09/06 05:22:05;;;;;;;0.00;0.00;;;;;;;17.63;75.39;100085.22;7361342;19;20011;-62
2022/09/06 05:24:30;;;;;;;0.05;0.05;;;;;;;17.63;75.42;100092.28;7359468;19;20002;-61
2022/09/06 05:26:55;;;;;;;0.00;0.00;;;;;;;17.62;75.83;100083.50;7359449;19;20766;-61
2022/09/06 05:29:21;;;;;;;0.00;0.00;;;;;;;17.62;75.81;100090.59;7360074;19;20014;-62
2022/09/06 05:31:46;;;;;;;0.00;0.00;;;;;;;17.63;76.11;100082.56;7361294;19;20010;-61
2022/09/06 05:34:13;;;;;;;0.00;0.00;;;;;;;17.66;75.76;100089.47;7358663;19;19999;-62
2022/09/06 05:36:40;;;;;;;0.00;0.00;;;;;;;17.66;76.23;100085.97;7360951;19;20048;-62
2022/09/06 05:39:06;;;;;;;0.00;0.00;;;;;;;17.68;76.33;100092.84;7358740;19;20567;-62
2022/09/06 05:41:32;;;;;;;0.00;0.00;;;;;;;17.72;75.41;100093.53;7361355;19;20021;-62
2022/09/06 05:43:58;;;;;;;0.00;0.00;;;;;;;17.74;76.07;100092.53;7356428;19;20018;-62
2022/09/06 05:46:23;;;;;;;0.00;0.00;;;;;;;17.77;75.96;100097.59;7359720;19;20011;-62
2022/09/06 05:48:59;;;;;;;0.00;0.00;;;;;;;17.74;75.85;100076.69;7359105;19;20010;-62
2022/09/06 05:51:25;;;;;;;0.00;0.00;;;;;;;17.81;76.10;100108.84;7360597;19;20011;-62
2022/09/06 05:53:51;;;;;;;0.00;0.00;;;;;;;17.82;76.17;100095.53;7358507;19;20014;-62
2022/09/06 05:56:17;;;;;;;0.00;0.00;;;;;;;17.85;76.07;100099.78;7358307;19;20837;-61
2022/09/06 05:58:43;;;;;;;0.00;0.00;;;;;;;17.86;75.63;100098.81;7348339;19;20026;-61
2022/09/06 06:01:18;;;;;;;0.00;0.00;;;;;;;17.94;75.71;100108.91;7359881;19;20006;-61
2022/09/06 06:03:52;;;;;;;0.05;0.05;;;;;;;17.96;75.72;100107.03;7360034;19;20020;-61
2022/09/06 06:06:19;;;;;;;0.00;0.00;;;;;;;17.95;75.72;100105.34;7358088;19;20454;-61
2022/09/06 06:08:44;;;;;;;0.10;0.10;;;;;;;17.97;75.68;100108.72;7361303;19;20026;-61
2022/09/06 06:11:10;;;;;;;0.00;0.00;;;;;;;17.95;75.39;100100.06;7357078;19;20002;-61
2022/09/06 06:13:38;;;;;;;0.00;0.00;;;;;;;18.00;75.83;100103.25;7360535;19;20015;-62
2022/09/06 06:16:06;;;;;;;0.00;0.00;;;;;;;17.98;75.54;100094.56;7364131;19;20017;-62
2022/09/06 06:18:31;;;;;;;0.03;0.03;;;;;;;17.95;75.91;100095.63;7367075;19;20419;-62
2022/09/06 06:21:27;;;;;;;0.00;0.00;;;;;;;18.09;75.50;100092.09;7366949;19;20007;-61
2022/09/06 06:23:58;;;;;;;0.00;0.00;;;;;;;18.07;75.91;100099.28;7263407;19;2004356;-61
2022/09/06 06:26:25;;;;;;;0.00;0.00;;;;;;;18.08;75.57;100100.97;7366147;19;20024;-61
2022/09/06 06:28:52;;;;;;;0.00;0.00;;;;;;;18.08;75.89;100099.16;7366059;19;20470;-62
2022/09/06 06:31:19;;;;;;;0.00;0.00;;;;;;;18.13;75.46;100096.22;7364436;19;20082;-61
2022/09/06 06:33:45;;;;;;;0.00;0.00;;;;;;;18.16;74.94;100093.41;7362767;19;20771;-61
2022/09/06 06:36:13;;;;;;;0.00;0.00;;;;;;;18.20;74.87;100097.56;7366979;19;20043;-61
2022/09/06 06:38:41;;;;;;;0.00;0.00;;;;;;;18.22;75.29;100100.94;7364870;19;20006;-61
2022/09/06 06:41:08;;;;;;;0.00;0.00;;;;;;;18.24;75.04;100091.09;7363873;19;20023;-61
2022/09/06 06:43:37;;;;;;;;;;;;;;;18.32;74.60;100098.56;7362317;19;20007;-61
2022/09/06 06:46:03;;;;;;;0.00;0.00;;;;;;;18.28;74.42;100095.25;7365983;19;19943;-61
2022/09/06 06:48:28;;;;;;;0.00;0.00;;;;;;;18.32;74.82;100099.41;7364455;19;20055;-61
2022/09/06 06:50:54;;;;;;;0.00;0.00;;;;;;;18.31;74.85;100092.41;7363547;19;20565;-62
2022/09/06 06:53:19;;;;;;;0.00;0.00;;;;;;;18.36;74.52;100092.97;7361430;19;20074;-61
2022/09/06 06:55:47;;;;;;;0.00;0.00;;;;;;;18.38;74.18;100091.06;7362121;19;20025;-62
2022/09/06 06:58:14;;;;;;;0.00;0.00;;;;;;;18.42;73.83;100083.78;7355931;19;21054;-61
2022/09/06 07:00:40;;;;;;;0.00;0.00;;;;;;;18.38;74.05;100077.84;7364771;19;20459;-61
2022/09/06 07:03:06;;;;;;;0.00;0.00;;;;;;;18.44;73.78;100092.47;7367181;19;20018;-61
2022/09/06 07:05:32;;;;;;;0.00;0.00;;;;;;;18.46;73.08;100080.00;7367056;19;20368;-61
2022/09/06 07:07:58;;;;;;;0.00;0.00;;;;;;;18.38;73.17;100061.97;7362946;19;20014;-61
2022/09/06 07:10:23;;;;;;;0.00;0.00;;;;;;;18.47;73.65;100078.22;7365396;19;20019;-61
2022/09/06 07:12:49;;;;;;;0.00;0.00;;;;;;;18.48;73.10;100077.25;7366397;19;20373;-61
2022/09/06 07:15:15;;;;;;;0.00;0.00;;;;;;;18.45;72.87;100072.16;7365463;19;20022;-61
2022/09/06 07:17:40;;;;;;;0.00;0.00;;;;;;;18.54;72.81;100074.19;7367082;19;20017;-61
2022/09/06 07:20:06;;;;;;;0.00;0.00;;;;;;;18.56;73.36;100080.25;7365245;19;20454;-61
2022/09/06 07:22:31;;;;;;;0.00;0.00;;;;;;;18.59;73.28;100065.00;7361303;19;20011;-61
2022/09/06 07:24:57;;;;;;;0.00;0.00;;;;;;;18.65;72.60;100072.56;7364560;19;20028;-61
2022/09/06 07:27:22;;;;;;;0.00;0.00;;;;;;;18.67;73.27;100072.44;7363744;19;20772;-61
2022/09/06 07:29:48;;;;;;;0.00;0.00;;;;;;;18.69;72.15;100070.56;7356412;19;20028;-61
2022/09/06 07:32:13;;;;;;;0.00;0.00;;;;;;;18.66;71.96;100049.59;7366385;19;20557;-62
2022/09/06 07:34:38;;;;;;;0.00;0.00;;;;;;;18.71;71.68;100055.47;7363103;19;20028;-61
2022/09/06 07:37:04;;;;;;;0.00;0.00;;;;;;;18.73;72.01;100061.50;7363820;19;20470;-61
2022/09/06 07:39:31;;;;;;;0.00;0.00;;;;;;;18.73;72.36;100072.06;7360225;19;20010;-60
2022/09/06 07:41:57;;;;;;;;;;;;;;;18.80;71.77;100057.47;7364836;19;20567;-61
2022/09/06 07:44:22;;;;;;;0.00;0.00;;;;;;;18.78;71.98;100069.13;7363490;19;19918;-61
2022/09/06 07:46:47;;;;;;;0.00;0.00;;;;;;;18.78;72.65;100063.84;7367709;19;20011;-61
2022/09/06 07:49:13;;;;;;;0.00;0.00;;;;;;;18.83;71.71;100062.56;7359046;19;20682;-61
2022/09/06 07:51:38;;;;;;;0.00;0.00;;;;;;;18.83;70.60;100056.44;7364314;19;20013;-61
2022/09/06 07:54:05;;;;;;;0.03;0.03;;;;;;;18.83;71.79;100059.09;7355734;19;20002;-61
2022/09/06 07:56:31;;;;;;;0.05;0.05;;;;;;;18.81;70.58;100053.91;7362773;19;20002;-62
2022/09/06 07:58:56;;;;;;;0.00;0.00;;;;;;;18.85;71.30;100060.66;7362202;19;20010;-61
2022/09/06 08:01:29;;;;;;;0.10;0.10;;;;;;;18.92;71.00;100071.69;7364421;19;20036;-61
2022/09/06 08:03:59;;;;;;;0.00;0.00;;;;;;;18.92;70.76;100067.25;7362553;19;20521;-61
2022/09/06 08:06:27;;;;;;;0.00;0.00;;;;;;;18.88;71.09;100071.03;7360901;19;20010;-61
2022/09/06 08:08:53;;;;;;;0.00;0.00;;;;;;;18.89;70.87;100062.16;7363149;19;20022;-61
2022/09/06 08:11:19;;;;;;;0.10;0.10;;;;;;;18.91;71.11;100065.56;7358944;19;20014;-61
2022/09/06 08:13:53;;;;;;;0.10;0.10;;;;;;;19.00;71.29;100068.53;7362596;19;20013;-61
2022/09/06 08:16:20;;;;;;;0.00;0.00;;;;;;;19.02;70.60;100069.28;7361699;19;20006;-61
2022/09/06 08:18:52;;;;;;;0.10;0.10;;;;;;;19.05;71.08;100066.41;7363654;19;20050;-61
2022/09/06 08:21:18;;;;;;;0.00;0.00;;;;;;;18.88;71.01;100035.81;7362597;19;20049;-61
2022/09/06 08:23:46;;;;;;;0.00;0.00;;;;;;;19.08;70.62;100050.34;7363968;19;20489;-61
2022/09/06 08:26:12;;;;;;;0.00;0.00;;;;;;;19.07;72.09;100064.53;7360801;19;20052;-61
2022/09/06 08:28:37;;;;;;;0.00;0.00;;;;;;;19.11;71.44;100066.84;7365693;19;20033;-61
2022/09/06 08:31:06;;;;;;;0.00;0.00;;;;;;;19.19;70.94;100047.78;7363459;19;20006;-61
2022/09/06 08:33:31;;;;;;;0.00;0.00;;;;;;;19.18;70.89;100057.53;7364033;19;20735;-60
2022/09/06 08:35:57;;;;;;;0.00;0.00;;;;;;;19.26;70.52;100051.72;7366525;19;20011;-61
2022/09/06 08:38:23;;;;;;;0.00;0.00;;;;;;;19.33;70.37;100055.63;7362584;19;20675;-61
2022/09/06 08:40:51;;;;;;;0.00;0.00;;;;;;;19.38;70.27;100050.88;7363867;19;20017;-61
2022/09/06 08:43:17;;;;;;;;;;;;;;;19.52;70.11;100057.00;7360430;19;20344;-61
2022/09/06 08:45:46;;;;;;;0.10;0.10;;;;;;;19.53;69.23;100056.06;7361549;19;20564;-61
2022/09/06 08:48:12;;;;;;;0.00;0.00;;;;;;;19.53;69.46;100058.69;7357903;19;20466;-61
2022/09/06 08:50:43;;;;;;;0.00;0.00;;;;;;;19.57;69.97;100061.03;7359958;19;20014;-61
2022/09/06 08:53:16;;;;;;;0.00;0.00;;;;;;;19.61;70.24;100059.00;7359804;19;20363;-61
2022/09/06 08:55:45;;;;;;;0.05;0.05;;;;;;;19.59;68.90;100051.19;7361226;19;20037;-61
2022/09/06 08:58:24;;;;;;;0.00;0.00;;;;;;;19.68;70.04;100053.19;7361313;19;20398;-61
2022/09/06 09:00:57;;;;;;;0.00;0.00;;;;;;;19.63;70.36;100051.81;7364408;19;20082;-60
2022/09/06 09:03:33;;;;;;;0.00;0.00;;;;;;;19.73;69.76;100065.28;7363165;19;20044;-61
2022/09/06 09:06:02;;;;;;;0.00;0.00;;;;;;;19.74;69.50;100062.50;7362861;19;20031;-61
2022/09/06 09:08:46;;;;;;;0.00;0.00;;;;;;;19.84;69.33;100060.06;7360335;19;20014;-61
2022/09/06 09:11:20;;;;;;;0.00;0.00;;;;;;;19.85;69.60;100073.19;7362633;19;20010;-61
2022/09/06 09:14:08;;;;;;;0.00;0.00;;;;;;;19.85;69.47;100051.97;7363907;19;20014;-61
2022/09/06 09:16:34;;;;;;;0.00;0.00;;;;;;;19.84;69.57;100055.59;7361121;19;20006;-61
2022/09/06 09:19:02;;;;;;;0.05;0.05;;;;;;;19.88;69.71;100051.78;7363354;19;20044;-61
2022/09/06 09:21:32;;;;;;;0.00;0.00;;;;;;;19.92;69.45;100055.91;7360192;19;20017;-61
2022/09/06 09:24:04;;;;;;;0.10;0.10;;;;;;;20.14;68.85;100052.53;7361600;19;20010;-61
2022/09/06 09:26:35;;;;;;;0.00;0.00;;;;;;;20.22;68.87;100049.31;7364058;19;20066;-61
2022/09/06 09:29:09;;;;;;;0.00;0.00;;;;;;;20.32;68.41;100052.97;7362695;19;20018;-60
2022/09/06 09:31:49;;;;;;;0.03;0.03;;;;;;;20.32;68.39;100049.50;7364091;19;20074;-61
2022/09/06 09:34:32;;;;;;;0.00;0.00;;;;;;;20.53;68.06;100065.66;7362561;19;20022;-61
2022/09/06 09:37:23;;;;;;;0.00;0.00;;;;;;;20.66;68.63;100064.63;7360067;19;20047;-61
2022/09/06 09:39:52;;;;;;;0.00;0.00;;;;;;;20.76;67.17;100043.56;7255253;19;2004969;-61
2022/09/06 09:42:29;;;;;;;0.00;0.00;;;;;;;20.93;66.45;100051.09;7360046;19;20011;-61
2022/09/06 09:44:56;;;;;;;0.00;0.00;;;;;;;20.83;65.84;100038.63;7361647;19;20011;-61
2022/09/06 09:47:32;;;;;;;0.00;0.00;;;;;;;21.02;66.89;100046.88;7361657;19;20026;-61
2022/09/06 09:49:58;;;;;;;0.00;0.00;;;;;;;21.04;65.08;100046.78;7361621;19;20018;-61
2022/09/06 09:52:28;;;;;;;0.00;0.00;;;;;;;21.09;65.11;100047.28;7366661;19;20033;-61
2022/09/06 09:54:56;;;;;;;0.00;0.00;;;;;;;21.03;64.99;100039.75;7367120;19;20011;-61
2022/09/06 09:57:22;;;;;;;0.00;0.00;;;;;;;21.13;65.33;100065.47;7367128;19;20790;-61
2022/09/06 09:59:57;;;;;;;0.00;0.00;;;;;;;21.17;65.36;100058.13;7365414;19;22706;-61
2022/09/06 10:02:39;;;;;;;0.00;0.00;;;;;;;21.10;65.38;100030.38;7367929;19;20478;-61
2022/09/06 10:05:11;;;;;;;0.00;0.00;;;;;;;21.19;65.92;100061.53;7366859;19;20010;-61
2022/09/06 10:07:44;;;;;;;0.00;0.00;;;;;;;21.33;65.03;100045.38;7366772;19;20018;-60
2022/09/06 10:10:34;;;;;;;0.00;0.00;;;;;;;21.49;65.18;100053.88;7367180;19;20022;-60
2022/09/06 10:13:15;;;;;;;0.00;0.00;;;;;;;21.78;65.66;100064.00;7365165;19;20386;-61
2022/09/06 10:15:42;;;;;;;0.00;0.00;;;;;;;21.87;64.34;100068.59;7365651;19;20487;-61
2022/09/06 10:18:42;;;;;;;0.00;0.00;;;;;;;21.93;64.16;100060.09;7366439;19;20018;-61
2022/09/06 10:21:17;;;;;;;0.00;0.00;;;;;;;21.85;63.24;100053.75;7262499;19;2004598;-61
2022/09/06 10:24:35;;;;;;;0.00;0.00;;;;;;;21.76;63.37;100069.44;7364144;19;20018;-61
2022/09/06 10:27:02;;;;;;;0.10;0.10;;;;;;;21.54;64.09;100060.59;7258359;19;2004435;-61
2022/09/06 10:29:33;;;;;;;0.10;0.10;;;;;;;21.44;64.60;100057.81;7360793;19;20455;-60
2022/09/06 10:32:13;;;;;;;0.00;0.00;;;;;;;21.24;65.96;100062.03;7363692;19;20733;-61
2022/09/06 10:34:53;;;;;;;0.00;0.00;;;;;;;21.04;66.28;100068.03;7361659;19;20781;-60
2022/09/06 10:37:27;;;;;;;0.00;0.00;;;;;;;20.76;69.84;100051.53;7364686;19;20515;-61
2022/09/06 10:40:07;;;;;;;0.00;0.00;;;;;;;20.59;68.50;100057.25;7363382;19;20018;-61
2022/09/06 10:42:49;;;;;;;0.00;0.00;;;;;;;20.38;69.45;100034.00;7364511;19;20252;-61
2022/09/06 10:45:34;;;;;;;0.00;0.00;;;;;;;20.20;71.49;100030.03;7364519;19;20010;-61
2022/09/06 10:48:14;;;;;;;0.00;0.00;;;;;;;20.09;71.93;100037.94;7364817;19;20974;-62
2022/09/06 10:51:06;;;;;;;0.00;0.00;;;;;;;20.10;71.46;100023.72;7365569;19;20032;-62
2022/09/06 10:53:50;;;;;;;0.00;0.00;;;;;;;20.16;71.97;100025.91;7263285;19;2004430;-62
2022/09/06 10:56:54;;;;;;;0.00;0.00;;;;;;;20.22;70.69;100028.09;7362451;19;20014;-61
2022/09/06 10:59:47;;;;;;;0.05;0.05;;;;;;;20.28;70.17;100032.97;7260377;19;2004550;-62
2022/09/06 11:02:34;;;;;;;0.00;0.00;;;;;;;20.29;70.52;100013.47;7365227;19;20043;-61
2022/09/06 11:05:06;;;;;;;0.00;0.00;;;;;;;20.37;70.95;100031.44;7364065;19;20059;-61
2022/09/06 11:07:36;;;;;;;0.00;0.00;;;;;;;20.49;73.04;100019.97;7366270;19;20034;-61
2022/09/06 11:10:19;;;;;;;0.00;0.00;;;;;;;20.76;71.91;100016.19;7364306;19;20768;-62
2022/09/06 11:12:54;;;;;;;0.05;0.05;;;;;;;21.07;71.53;99993.44;7366424;19;20022;-61
2022/09/06 11:15:22;;;;;;;0.00;0.00;;;;;;;21.27;69.59;100000.69;7361873;19;20487;-62
2022/09/06 11:18:07;;;;;;;0.00;0.00;;;;;;;21.63;67.54;100001.44;7362885;19;20014;-61
2022/09/06 11:20:51;;;;;;;0.00;0.00;;;;;;;21.82;66.68;100000.81;7362726;19;20013;-62
2022/09/06 11:23:19;;;;;;;0.00;0.00;;;;;;;21.75;66.73;100000.47;7359868;19;20041;-61
2022/09/06 11:26:03;;;;;;;0.00;0.00;;;;;;;21.79;66.67;99991.25;7361853;19;20103;-62
2022/09/06 11:28:33;;;;;;;0.00;0.00;;;;;;;21.79;66.28;99983.28;7361405;19;20022;-62
2022/09/06 11:30:59;;;;;;;0.00;0.00;;;;;;;21.77;66.77;99994.06;7363516;19;20010;-61
2022/09/06 11:33:25;;;;;;;0.00;0.00;;;;;;;21.81;64.75;99984.03;7361528;19;20043;-62
2022/09/06 11:35:51;;;;;;;0.00;0.00;;;;;;;21.80;65.71;99992.97;7362237;19;20017;-61
2022/09/06 11:38:25;;;;;;;0.00;0.00;;;;;;;21.85;65.12;100001.41;7361047;19;20052;-61
2022/09/06 11:40:59;;;;;;;0.00;0.00;;;;;;;21.82;65.21;99999.00;7361523;19;20018;-61